Terminal Aerodrome Forecast
Issued by NWS Corpus Christi, TX

Home | Current Version | Previous Version | Text Only | Print | Product List | Glossary On
Versions: 1 2 3 4 5 6 7 8 9 10 11 12 13 14 15 16 17
000
FTUS44 KCRP 010500
TAFVCT
TAF
KVCT 010530Z 0106/0206 14011KT 6SM BR FEW008 SCT024 OVC100
      WS020/19035KT
     FM010900 18008KT 4SM BR SCT005 BKN100
      TEMPO 0110/0114 1SM BR BKN003
     FM011500 27008KT P6SM BKN100
     FM012100 36010KT P6SM BKN100
     FM020100 36021KT P6SM SCT018=

USA.gov is the U.S. government's official web portal to all federal, state and local government web resources and services.